METAR UND TAF INFORMATION
UKBB 160730Z 12006MPS 5000 -FZDZ BR OVC003 M04/M04 Q1031 R88/811045 TEMPO -FZDZ BKN002

 FLUGHAFENKARTE

 RUNWAY INFORMATION
Runway 18L Runway length 13123 ft Runway width 197 ft
Runway elevation 410 ft Runway displaced threshold 0 ft Runway heading 183
Runway 36R Runway length 13123 ft Runway width 197 ft
Runway elevation 422 ft Runway displaced threshold 0 ft Runway heading 3
Runway 18R Runway length 11483 ft Runway width 206 ft
Runway elevation 419 ft Runway displaced threshold 0 ft Runway heading 183
Runway 36L Runway length 11483 ft Runway width 206 ft
Runway elevation 403 ft Runway displaced threshold 0 ft Runway heading 3

 AIRPORT FREQUENCIES
Type ATIS Name ATIS Frequency 126.7 MHZ
Type CLD Name DLV Frequency 130.275 MHZ
Type GND Name GND Frequency 118.05 MHZ
Type OPS Name OPS Frequency 131.775 MHZ
Type RDR Name KYIV RADAR Frequency 124.675 MHZ
Type TWR Name TWR Frequency 119.65 MHZ

 AIRPORT NEAR NAVIGATION AIDS
Type NDB Name Boryspil Frequency 310 KHZ
Type VOR-DME Name Boryspil Frequency 115900 KHZ
Type NDB Name Boryspil Frequency 825 KHZ
Type NDB Name Boryspil Frequency 825 KHZ
Type NDB Name Boryspil Frequency 310 KHZ



Version 5.0.0: Changelog

Impressum | Datenschutzerklärung

Virtual Airlines Manager